sensor_id;sensor_type;location;lat;lon;timestamp;temperature;humidity
4755;DHT22;2391;47.212;7.542;2023-07-09T00:01:21;25.30;81.10
4755;DHT22;2391;47.212;7.542;2023-07-09T00:03:46;25.30;81.40
4755;DHT22;2391;47.212;7.542;2023-07-09T00:06:17;25.30;81.50
4755;DHT22;2391;47.212;7.542;2023-07-09T00:08:45;25.30;81.90
4755;DHT22;2391;47.212;7.542;2023-07-09T00:11:14;25.30;81.60
4755;DHT22;2391;47.212;7.542;2023-07-09T00:13:40;25.20;81.70
4755;DHT22;2391;47.212;7.542;2023-07-09T00:16:23;25.20;81.80
4755;DHT22;2391;47.212;7.542;2023-07-09T00:18:48;25.20;81.70
4755;DHT22;2391;47.212;7.542;2023-07-09T00:21:16;25.20;81.70
4755;DHT22;2391;47.212;7.542;2023-07-09T00:23:42;25.20;81.60
4755;DHT22;2391;47.212;7.542;2023-07-09T00:26:12;25.20;81.60
4755;DHT22;2391;47.212;7.542;2023-07-09T00:28:43;25.20;81.60
4755;DHT22;2391;47.212;7.542;2023-07-09T00:31:12;25.20;81.60
4755;DHT22;2391;47.212;7.542;2023-07-09T00:33:39;25.10;81.90
4755;DHT22;2391;47.212;7.542;2023-07-09T00:36:17;25.10;81.90
4755;DHT22;2391;47.212;7.542;2023-07-09T00:38:43;25.00;81.90
4755;DHT22;2391;47.212;7.542;2023-07-09T00:41:14;25.00;82.10
4755;DHT22;2391;47.212;7.542;2023-07-09T00:43:42;25.00;82.10
4755;DHT22;2391;47.212;7.542;2023-07-09T00:48:54;25.00;82.20
4755;DHT22;2391;47.212;7.542;2023-07-09T00:51:22;24.90;82.10
4755;DHT22;2391;47.212;7.542;2023-07-09T00:53:52;24.90;82.10
4755;DHT22;2391;47.212;7.542;2023-07-09T00:56:24;24.90;82.20
4755;DHT22;2391;47.212;7.542;2023-07-09T00:58:48;24.80;82.20
4755;DHT22;2391;47.212;7.542;2023-07-09T01:01:17;24.80;82.20
4755;DHT22;2391;47.212;7.542;2023-07-09T01:03:49;24.80;82.50
4755;DHT22;2391;47.212;7.542;2023-07-09T01:06:19;24.80;83.00
4755;DHT22;2391;47.212;7.542;2023-07-09T01:08:45;24.70;82.80
4755;DHT22;2391;47.212;7.542;2023-07-09T01:11:19;24.70;82.90
4755;DHT22;2391;47.212;7.542;2023-07-09T01:13:54;24.70;83.00
4755;DHT22;2391;47.212;7.542;2023-07-09T01:16:18;24.60;83.00
4755;DHT22;2391;47.212;7.542;2023-07-09T01:18:46;24.60;83.10
4755;DHT22;2391;47.212;7.542;2023-07-09T01:21:12;24.60;83.70
4755;DHT22;2391;47.212;7.542;2023-07-09T01:23:39;24.60;83.10
4755;DHT22;2391;47.212;7.542;2023-07-09T01:26:07;24.60;83.10
4755;DHT22;2391;47.212;7.542;2023-07-09T01:28:32;24.60;83.10
4755;DHT22;2391;47.212;7.542;2023-07-09T01:30:58;24.50;83.20
4755;DHT22;2391;47.212;7.542;2023-07-09T01:33:25;24.50;83.30
4755;DHT22;2391;47.212;7.542;2023-07-09T01:35:51;24.50;83.30
4755;DHT22;2391;47.212;7.542;2023-07-09T01:38:18;24.50;83.30
4755;DHT22;2391;47.212;7.542;2023-07-09T01:40:45;24.50;83.20
4755;DHT22;2391;47.212;7.542;2023-07-09T01:43:11;24.50;83.60
4755;DHT22;2391;47.212;7.542;2023-07-09T01:45:37;24.40;83.80
4755;DHT22;2391;47.212;7.542;2023-07-09T01:48:03;24.40;83.80
4755;DHT22;2391;47.212;7.542;2023-07-09T01:50:29;24.40;84.00
4755;DHT22;2391;47.212;7.542;2023-07-09T01:52:56;24.40;84.00
4755;DHT22;2391;47.212;7.542;2023-07-09T01:55:22;24.30;83.70
4755;DHT22;2391;47.212;7.542;2023-07-09T01:57:48;24.30;83.80
4755;DHT22;2391;47.212;7.542;2023-07-09T02:00:16;24.30;83.90
4755;DHT22;2391;47.212;7.542;2023-07-09T02:02:43;24.30;83.90
4755;DHT22;2391;47.212;7.542;2023-07-09T02:05:13;24.30;83.90
4755;DHT22;2391;47.212;7.542;2023-07-09T02:07:39;24.30;83.90
4755;DHT22;2391;47.212;7.542;2023-07-09T02:10:06;24.20;83.90
4755;DHT22;2391;47.212;7.542;2023-07-09T02:12:32;24.20;84.00
4755;DHT22;2391;47.212;7.542;2023-07-09T02:14:58;24.20;84.30
4755;DHT22;2391;47.212;7.542;2023-07-09T02:17:23;24.20;84.50
4755;DHT22;2391;47.212;7.542;2023-07-09T02:19:49;24.10;84.60
4755;DHT22;2391;47.212;7.542;2023-07-09T02:22:15;24.10;84.70
4755;DHT22;2391;47.212;7.542;2023-07-09T02:24:41;24.10;85.40
4755;DHT22;2391;47.212;7.542;2023-07-09T02:27:08;24.00;84.50
4755;DHT22;2391;47.212;7.542;2023-07-09T02:29:36;24.00;84.80
4755;DHT22;2391;47.212;7.542;2023-07-09T02:32:04;24.00;84.70
4755;DHT22;2391;47.212;7.542;2023-07-09T02:34:31;23.90;84.60
4755;DHT22;2391;47.212;7.542;2023-07-09T02:36:58;23.90;84.60
4755;DHT22;2391;47.212;7.542;2023-07-09T02:39:25;23.90;84.50
4755;DHT22;2391;47.212;7.542;2023-07-09T02:41:51;23.90;84.90
4755;DHT22;2391;47.212;7.542;2023-07-09T02:44:17;23.90;84.80
4755;DHT22;2391;47.212;7.542;2023-07-09T02:46:43;23.80;84.90
4755;DHT22;2391;47.212;7.542;2023-07-09T02:49:11;23.80;84.90
4755;DHT22;2391;47.212;7.542;2023-07-09T02:51:37;23.80;84.80
4755;DHT22;2391;47.212;7.542;2023-07-09T02:54:03;23.80;84.90
4755;DHT22;2391;47.212;7.542;2023-07-09T02:56:29;23.80;85.10
4755;DHT22;2391;47.212;7.542;2023-07-09T02:58:55;23.80;85.00
4755;DHT22;2391;47.212;7.542;2023-07-09T03:01:21;23.70;85.20
4755;DHT22;2391;47.212;7.542;2023-07-09T03:03:54;23.70;85.20
4755;DHT22;2391;47.212;7.542;2023-07-09T03:06:22;23.70;85.20
4755;DHT22;2391;47.212;7.542;2023-07-09T03:08:49;23.70;85.10
4755;DHT22;2391;47.212;7.542;2023-07-09T03:11:16;23.70;85.10
4755;DHT22;2391;47.212;7.542;2023-07-09T03:13:42;23.60;84.90
4755;DHT22;2391;47.212;7.542;2023-07-09T03:16:08;23.60;85.00
4755;DHT22;2391;47.212;7.542;2023-07-09T03:18:34;23.60;85.00
4755;DHT22;2391;47.212;7.542;2023-07-09T03:21:00;23.60;85.20
4755;DHT22;2391;47.212;7.542;2023-07-09T03:23:26;23.50;85.20
4755;DHT22;2391;47.212;7.542;2023-07-09T03:25:52;23.50;85.20
4755;DHT22;2391;47.212;7.542;2023-07-09T03:28:18;23.50;85.60
4755;DHT22;2391;47.212;7.542;2023-07-09T03:30:46;23.50;85.70
4755;DHT22;2391;47.212;7.542;2023-07-09T03:33:14;23.50;85.80
4755;DHT22;2391;47.212;7.542;2023-07-09T03:35:40;23.40;85.80
4755;DHT22;2391;47.212;7.542;2023-07-09T03:38:07;23.40;86.00
4755;DHT22;2391;47.212;7.542;2023-07-09T03:40:33;23.40;86.00
4755;DHT22;2391;47.212;7.542;2023-07-09T03:42:59;23.40;86.10
4755;DHT22;2391;47.212;7.542;2023-07-09T03:45:25;23.40;86.10
4755;DHT22;2391;47.212;7.542;2023-07-09T03:47:52;23.40;86.10
4755;DHT22;2391;47.212;7.542;2023-07-09T03:50:18;23.40;86.00
4755;DHT22;2391;47.212;7.542;2023-07-09T03:52:44;23.40;85.90
4755;DHT22;2391;47.212;7.542;2023-07-09T03:55:10;23.40;85.90
4755;DHT22;2391;47.212;7.542;2023-07-09T03:57:36;23.40;85.80
4755;DHT22;2391;47.212;7.542;2023-07-09T04:00:03;23.40;85.90
4755;DHT22;2391;47.212;7.542;2023-07-09T04:02:30;23.30;85.90
4755;DHT22;2391;47.212;7.542;2023-07-09T04:04:57;23.30;86.30
4755;DHT22;2391;47.212;7.542;2023-07-09T04:07:22;23.30;86.10
4755;DHT22;2391;47.212;7.542;2023-07-09T04:09:48;23.30;86.20
4755;DHT22;2391;47.212;7.542;2023-07-09T04:12:14;23.30;86.20
4755;DHT22;2391;47.212;7.542;2023-07-09T04:14:40;23.20;86.10
4755;DHT22;2391;47.212;7.542;2023-07-09T04:17:08;23.20;86.40
4755;DHT22;2391;47.212;7.542;2023-07-09T04:19:34;23.20;86.30
4755;DHT22;2391;47.212;7.542;2023-07-09T04:22:00;23.20;86.20
4755;DHT22;2391;47.212;7.542;2023-07-09T04:24:25;23.20;86.40
4755;DHT22;2391;47.212;7.542;2023-07-09T04:26:52;23.20;86.50
4755;DHT22;2391;47.212;7.542;2023-07-09T04:29:20;23.20;86.60
4755;DHT22;2391;47.212;7.542;2023-07-09T04:31:46;23.20;86.70
4755;DHT22;2391;47.212;7.542;2023-07-09T04:34:11;23.20;86.90
4755;DHT22;2391;47.212;7.542;2023-07-09T04:36:37;23.20;86.90
4755;DHT22;2391;47.212;7.542;2023-07-09T04:39:03;23.20;87.00
4755;DHT22;2391;47.212;7.542;2023-07-09T04:41:30;23.20;87.10
4755;DHT22;2391;47.212;7.542;2023-07-09T04:43:55;23.20;87.20
4755;DHT22;2391;47.212;7.542;2023-07-09T04:46:21;23.20;87.10
4755;DHT22;2391;47.212;7.542;2023-07-09T04:48:47;23.20;87.30
4755;DHT22;2391;47.212;7.542;2023-07-09T04:51:12;23.20;87.40
4755;DHT22;2391;47.212;7.542;2023-07-09T04:53:38;23.30;87.20
4755;DHT22;2391;47.212;7.542;2023-07-09T04:56:04;23.30;87.40
4755;DHT22;2391;47.212;7.542;2023-07-09T04:58:30;23.30;87.50
4755;DHT22;2391;47.212;7.542;2023-07-09T05:00:59;23.30;87.40
4755;DHT22;2391;47.212;7.542;2023-07-09T05:03:25;23.30;87.40
4755;DHT22;2391;47.212;7.542;2023-07-09T05:05:51;23.30;87.40
4755;DHT22;2391;47.212;7.542;2023-07-09T05:08:17;23.30;87.70
4755;DHT22;2391;47.212;7.542;2023-07-09T05:10:44;23.30;87.70
4755;DHT22;2391;47.212;7.542;2023-07-09T05:13:10;23.30;87.70
4755;DHT22;2391;47.212;7.542;2023-07-09T05:15:42;23.40;87.80
4755;DHT22;2391;47.212;7.542;2023-07-09T05:18:08;23.40;87.70
4755;DHT22;2391;47.212;7.542;2023-07-09T05:20:34;23.40;87.90
4755;DHT22;2391;47.212;7.542;2023-07-09T05:23:01;23.40;88.00
4755;DHT22;2391;47.212;7.542;2023-07-09T05:25:26;23.40;88.30
4755;DHT22;2391;47.212;7.542;2023-07-09T05:27:52;23.40;88.50
4755;DHT22;2391;47.212;7.542;2023-07-09T05:30:19;23.30;88.90
4755;DHT22;2391;47.212;7.542;2023-07-09T05:32:45;23.30;88.70
4755;DHT22;2391;47.212;7.542;2023-07-09T05:35:11;23.30;88.80
4755;DHT22;2391;47.212;7.542;2023-07-09T05:37:37;23.20;88.50
4755;DHT22;2391;47.212;7.542;2023-07-09T05:40:04;23.30;88.80
4755;DHT22;2391;47.212;7.542;2023-07-09T05:42:31;23.20;88.60
4755;DHT22;2391;47.212;7.542;2023-07-09T05:44:57;23.30;88.60
4755;DHT22;2391;47.212;7.542;2023-07-09T05:47:23;23.30;88.90
4755;DHT22;2391;47.212;7.542;2023-07-09T05:49:50;23.30;89.10
4755;DHT22;2391;47.212;7.542;2023-07-09T05:52:19;23.40;89.00
4755;DHT22;2391;47.212;7.542;2023-07-09T05:54:45;23.40;89.00
4755;DHT22;2391;47.212;7.542;2023-07-09T05:57:11;23.40;89.00
4755;DHT22;2391;47.212;7.542;2023-07-09T05:59:37;23.50;89.20
4755;DHT22;2391;47.212;7.542;2023-07-09T06:02:03;23.50;89.00
4755;DHT22;2391;47.212;7.542;2023-07-09T06:04:30;23.60;89.10
4755;DHT22;2391;47.212;7.542;2023-07-09T06:06:59;23.60;88.60
4755;DHT22;2391;47.212;7.542;2023-07-09T06:09:24;23.70;88.90
4755;DHT22;2391;47.212;7.542;2023-07-09T06:11:50;23.80;88.70
4755;DHT22;2391;47.212;7.542;2023-07-09T06:14:16;23.90;88.60
4755;DHT22;2391;47.212;7.542;2023-07-09T06:16:43;24.00;87.50
4755;DHT22;2391;47.212;7.542;2023-07-09T06:19:09;24.10;88.00
4755;DHT22;2391;47.212;7.542;2023-07-09T06:21:35;24.30;88.00
4755;DHT22;2391;47.212;7.542;2023-07-09T06:24:01;24.40;87.90
4755;DHT22;2391;47.212;7.542;2023-07-09T06:26:27;24.60;87.00
4755;DHT22;2391;47.212;7.542;2023-07-09T06:28:52;24.70;86.50
4755;DHT22;2391;47.212;7.542;2023-07-09T06:31:18;24.80;86.20
4755;DHT22;2391;47.212;7.542;2023-07-09T06:33:47;25.00;86.60
4755;DHT22;2391;47.212;7.542;2023-07-09T06:36:13;25.20;86.10
4755;DHT22;2391;47.212;7.542;2023-07-09T06:38:39;25.30;85.60
4755;DHT22;2391;47.212;7.542;2023-07-09T06:41:05;25.50;85.30
4755;DHT22;2391;47.212;7.542;2023-07-09T06:43:30;25.70;85.30
4755;DHT22;2391;47.212;7.542;2023-07-09T06:45:59;25.90;84.10
4755;DHT22;2391;47.212;7.542;2023-07-09T06:48:27;26.10;84.00
4755;DHT22;2391;47.212;7.542;2023-07-09T06:50:55;26.30;83.80
4755;DHT22;2391;47.212;7.542;2023-07-09T06:53:21;26.50;83.50
4755;DHT22;2391;47.212;7.542;2023-07-09T06:55:48;26.70;82.60
4755;DHT22;2391;47.212;7.542;2023-07-09T06:58:19;26.80;81.70
4755;DHT22;2391;47.212;7.542;2023-07-09T07:00:45;26.90;80.80
4755;DHT22;2391;47.212;7.542;2023-07-09T07:03:11;27.00;81.70
4755;DHT22;2391;47.212;7.542;2023-07-09T07:05:37;27.10;81.40
4755;DHT22;2391;47.212;7.542;2023-07-09T07:08:03;27.20;81.20
4755;DHT22;2391;47.212;7.542;2023-07-09T07:10:29;27.30;80.90
4755;DHT22;2391;47.212;7.542;2023-07-09T07:12:55;27.50;80.60
4755;DHT22;2391;47.212;7.542;2023-07-09T07:15:24;27.50;80.80
4755;DHT22;2391;47.212;7.542;2023-07-09T07:17:50;27.50;79.70
4755;DHT22;2391;47.212;7.542;2023-07-09T07:20:16;27.60;79.60
4755;DHT22;2391;47.212;7.542;2023-07-09T07:22:42;27.70;79.30
4755;DHT22;2391;47.212;7.542;2023-07-09T07:25:08;27.80;78.50
4755;DHT22;2391;47.212;7.542;2023-07-09T07:27:35;27.90;77.80
4755;DHT22;2391;47.212;7.542;2023-07-09T07:30:02;28.00;78.50
4755;DHT22;2391;47.212;7.542;2023-07-09T07:32:27;28.10;78.90
4755;DHT22;2391;47.212;7.542;2023-07-09T07:34:53;28.20;79.00
4755;DHT22;2391;47.212;7.542;2023-07-09T07:37:20;28.30;76.60
4755;DHT22;2391;47.212;7.542;2023-07-09T07:39:47;28.30;75.80
4755;DHT22;2391;47.212;7.542;2023-07-09T07:42:14;28.40;75.60
4755;DHT22;2391;47.212;7.542;2023-07-09T07:44:40;28.40;76.80
4755;DHT22;2391;47.212;7.542;2023-07-09T07:47:06;28.40;75.30
4755;DHT22;2391;47.212;7.542;2023-07-09T07:49:32;28.30;76.20
4755;DHT22;2391;47.212;7.542;2023-07-09T07:51:58;28.40;77.10
4755;DHT22;2391;47.212;7.542;2023-07-09T07:54:24;28.50;77.70
4755;DHT22;2391;47.212;7.542;2023-07-09T07:56:50;28.60;78.30
4755;DHT22;2391;47.212;7.542;2023-07-09T07:59:17;28.70;76.90
4755;DHT22;2391;47.212;7.542;2023-07-09T08:01:43;28.90;76.00
4755;DHT22;2391;47.212;7.542;2023-07-09T08:04:09;29.00;75.50
4755;DHT22;2391;47.212;7.542;2023-07-09T08:06:34;29.10;74.90
4755;DHT22;2391;47.212;7.542;2023-07-09T08:09:00;29.20;73.30
4755;DHT22;2391;47.212;7.542;2023-07-09T08:11:26;29.10;73.90
4755;DHT22;2391;47.212;7.542;2023-07-09T08:13:53;29.20;74.80
4755;DHT22;2391;47.212;7.542;2023-07-09T08:16:19;29.20;74.30
4755;DHT22;2391;47.212;7.542;2023-07-09T08:18:45;29.30;74.30
4755;DHT22;2391;47.212;7.542;2023-07-09T08:21:10;29.30;73.50
4755;DHT22;2391;47.212;7.542;2023-07-09T08:23:36;29.40;74.30
4755;DHT22;2391;47.212;7.542;2023-07-09T08:26:03;29.50;73.90
4755;DHT22;2391;47.212;7.542;2023-07-09T08:28:30;29.40;73.10
4755;DHT22;2391;47.212;7.542;2023-07-09T08:30:56;29.40;73.10
4755;DHT22;2391;47.212;7.542;2023-07-09T08:33:23;29.40;74.50
4755;DHT22;2391;47.212;7.542;2023-07-09T08:35:50;29.40;74.30
4755;DHT22;2391;47.212;7.542;2023-07-09T08:38:16;29.40;74.60
4755;DHT22;2391;47.212;7.542;2023-07-09T08:48:51;29.60;73.80
4755;DHT22;2391;47.212;7.542;2023-07-09T08:51:28;29.60;74.20
4755;DHT22;2391;47.212;7.542;2023-07-09T08:53:58;29.70;74.00
4755;DHT22;2391;47.212;7.542;2023-07-09T08:56:26;29.70;73.70
4755;DHT22;2391;47.212;7.542;2023-07-09T08:58:55;29.90;73.20
4755;DHT22;2391;47.212;7.542;2023-07-09T09:01:31;30.10;72.60
4755;DHT22;2391;47.212;7.542;2023-07-09T09:04:08;30.20;71.70
4755;DHT22;2391;47.212;7.542;2023-07-09T09:06:34;30.10;71.80
4755;DHT22;2391;47.212;7.542;2023-07-09T09:11:54;30.30;70.70
4755;DHT22;2391;47.212;7.542;2023-07-09T09:14:31;30.40;69.70
4755;DHT22;2391;47.212;7.542;2023-07-09T09:16:58;30.50;67.60
4755;DHT22;2391;47.212;7.542;2023-07-09T09:21:59;30.50;68.90
4755;DHT22;2391;47.212;7.542;2023-07-09T09:24:37;30.60;67.20
4755;DHT22;2391;47.212;7.542;2023-07-09T09:27:04;30.60;68.10
4755;DHT22;2391;47.212;7.542;2023-07-09T09:29:30;30.70;67.80
4755;DHT22;2391;47.212;7.542;2023-07-09T09:31:58;30.70;67.80
4755;DHT22;2391;47.212;7.542;2023-07-09T09:34:28;30.80;68.30
4755;DHT22;2391;47.212;7.542;2023-07-09T09:36:57;30.80;65.80
4755;DHT22;2391;47.212;7.542;2023-07-09T09:39:25;30.90;66.60
4755;DHT22;2391;47.212;7.542;2023-07-09T09:41:54;30.90;66.70
4755;DHT22;2391;47.212;7.542;2023-07-09T09:44:28;31.00;65.60
4755;DHT22;2391;47.212;7.542;2023-07-09T09:46:56;31.00;65.50
4755;DHT22;2391;47.212;7.542;2023-07-09T09:49:22;31.00;67.30
4755;DHT22;2391;47.212;7.542;2023-07-09T09:51:48;31.00;66.20
4755;DHT22;2391;47.212;7.542;2023-07-09T09:54:20;31.10;66.60
4755;DHT22;2391;47.212;7.542;2023-07-09T09:56:49;31.30;68.10
4755;DHT22;2391;47.212;7.542;2023-07-09T09:59:21;31.40;67.10
4755;DHT22;2391;47.212;7.542;2023-07-09T10:01:56;31.50;65.70
4755;DHT22;2391;47.212;7.542;2023-07-09T10:04:18;31.60;64.00
4755;DHT22;2391;47.212;7.542;2023-07-09T10:06:53;31.60;63.30
4755;DHT22;2391;47.212;7.542;2023-07-09T10:09:37;31.70;62.70
4755;DHT22;2391;47.212;7.542;2023-07-09T10:12:08;31.70;61.30
4755;DHT22;2391;47.212;7.542;2023-07-09T10:14:48;31.60;61.10
4755;DHT22;2391;47.212;7.542;2023-07-09T10:19:48;31.70;61.60
4755;DHT22;2391;47.212;7.542;2023-07-09T10:22:22;31.70;61.70
4755;DHT22;2391;47.212;7.542;2023-07-09T10:30:51;31.80;61.30
4755;DHT22;2391;47.212;7.542;2023-07-09T10:33:28;31.90;60.70
4755;DHT22;2391;47.212;7.542;2023-07-09T10:36:13;31.90;58.30
4755;DHT22;2391;47.212;7.542;2023-07-09T10:41:12;31.80;59.50
4755;DHT22;2391;47.212;7.542;2023-07-09T10:46:28;31.80;60.00
4755;DHT22;2391;47.212;7.542;2023-07-09T10:48:55;31.80;59.10
4755;DHT22;2391;47.212;7.542;2023-07-09T10:51:37;31.80;58.00
4755;DHT22;2391;47.212;7.542;2023-07-09T10:54:06;31.80;58.90
4755;DHT22;2391;47.212;7.542;2023-07-09T10:56:33;32.00;58.20
4755;DHT22;2391;47.212;7.542;2023-07-09T10:59:20;32.10;58.00
4755;DHT22;2391;47.212;7.542;2023-07-09T11:01:56;32.20;58.50
4755;DHT22;2391;47.212;7.542;2023-07-09T11:04:33;32.20;58.40
4755;DHT22;2391;47.212;7.542;2023-07-09T11:07:03;32.20;58.20
4755;DHT22;2391;47.212;7.542;2023-07-09T11:09:35;32.20;56.50
4755;DHT22;2391;47.212;7.542;2023-07-09T11:12:05;32.20;57.60
4755;DHT22;2391;47.212;7.542;2023-07-09T11:14:38;32.30;58.50
4755;DHT22;2391;47.212;7.542;2023-07-09T11:17:11;32.30;56.80
4755;DHT22;2391;47.212;7.542;2023-07-09T11:19:41;32.30;57.10
4755;DHT22;2391;47.212;7.542;2023-07-09T11:27:33;32.50;58.60
4755;DHT22;2391;47.212;7.542;2023-07-09T11:30:02;32.50;58.60
4755;DHT22;2391;47.212;7.542;2023-07-09T11:32:28;32.50;56.60
4755;DHT22;2391;47.212;7.542;2023-07-09T11:34:54;32.50;56.50
4755;DHT22;2391;47.212;7.542;2023-07-09T11:37:25;32.50;56.40
4755;DHT22;2391;47.212;7.542;2023-07-09T11:39:51;32.60;56.40
4755;DHT22;2391;47.212;7.542;2023-07-09T11:42:29;32.70;56.70
4755;DHT22;2391;47.212;7.542;2023-07-09T11:45:08;32.70;55.60
4755;DHT22;2391;47.212;7.542;2023-07-09T11:47:53;32.80;54.60
4755;DHT22;2391;47.212;7.542;2023-07-09T11:50:27;32.80;53.10
4755;DHT22;2391;47.212;7.542;2023-07-09T11:52:59;32.90;54.50
4755;DHT22;2391;47.212;7.542;2023-07-09T11:55:41;32.80;54.60
4755;DHT22;2391;47.212;7.542;2023-07-09T11:58:10;32.90;55.60
4755;DHT22;2391;47.212;7.542;2023-07-09T12:00:40;32.90;55.30
4755;DHT22;2391;47.212;7.542;2023-07-09T12:03:09;32.90;54.60
4755;DHT22;2391;47.212;7.542;2023-07-09T12:05:35;33.00;54.00
4755;DHT22;2391;47.212;7.542;2023-07-09T12:08:01;33.10;54.30
4755;DHT22;2391;47.212;7.542;2023-07-09T12:10:32;33.10;53.10
4755;DHT22;2391;47.212;7.542;2023-07-09T12:12:58;33.20;53.70
4755;DHT22;2391;47.212;7.542;2023-07-09T12:15:26;33.20;50.70
4755;DHT22;2391;47.212;7.542;2023-07-09T12:20:22;33.30;50.90
4755;DHT22;2391;47.212;7.542;2023-07-09T12:22:48;33.30;48.90
4755;DHT22;2391;47.212;7.542;2023-07-09T12:25:21;33.30;48.40
4755;DHT22;2391;47.212;7.542;2023-07-09T12:27:47;33.30;47.50
4755;DHT22;2391;47.212;7.542;2023-07-09T12:30:13;33.40;46.60
4755;DHT22;2391;47.212;7.542;2023-07-09T12:32:44;33.40;44.80
4755;DHT22;2391;47.212;7.542;2023-07-09T12:35:13;33.40;42.60
4755;DHT22;2391;47.212;7.542;2023-07-09T12:37:42;33.40;43.60
4755;DHT22;2391;47.212;7.542;2023-07-09T12:40:20;33.40;46.30
4755;DHT22;2391;47.212;7.542;2023-07-09T12:42:45;33.50;47.50
4755;DHT22;2391;47.212;7.542;2023-07-09T12:45:16;33.70;48.40
4755;DHT22;2391;47.212;7.542;2023-07-09T12:47:43;33.70;46.60
4755;DHT22;2391;47.212;7.542;2023-07-09T12:52:49;33.80;47.50
4755;DHT22;2391;47.212;7.542;2023-07-09T12:55:26;33.80;44.10
4755;DHT22;2391;47.212;7.542;2023-07-09T12:57:57;33.90;42.90
4755;DHT22;2391;47.212;7.542;2023-07-09T13:00:27;33.90;44.30
4755;DHT22;2391;47.212;7.542;2023-07-09T13:02:54;33.90;45.10
4755;DHT22;2391;47.212;7.542;2023-07-09T13:05:23;33.90;46.90
4755;DHT22;2391;47.212;7.542;2023-07-09T13:07:58;34.10;47.20
4755;DHT22;2391;47.212;7.542;2023-07-09T13:10:24;34.20;46.50
4755;DHT22;2391;47.212;7.542;2023-07-09T13:13:04;34.20;47.40
4755;DHT22;2391;47.212;7.542;2023-07-09T13:15:39;34.30;46.60
4755;DHT22;2391;47.212;7.542;2023-07-09T13:18:08;34.30;45.40
4755;DHT22;2391;47.212;7.542;2023-07-09T13:20:37;34.30;46.30
4755;DHT22;2391;47.212;7.542;2023-07-09T13:23:08;34.40;45.10
4755;DHT22;2391;47.212;7.542;2023-07-09T13:25:34;34.40;45.10
4755;DHT22;2391;47.212;7.542;2023-07-09T13:28:01;34.40;43.50
4755;DHT22;2391;47.212;7.542;2023-07-09T13:30:28;34.40;43.30
4755;DHT22;2391;47.212;7.542;2023-07-09T13:32:54;34.40;43.50
4755;DHT22;2391;47.212;7.542;2023-07-09T13:35:20;34.50;44.70
4755;DHT22;2391;47.212;7.542;2023-07-09T13:37:46;34.50;44.00
4755;DHT22;2391;47.212;7.542;2023-07-09T13:40:14;34.60;43.80
4755;DHT22;2391;47.212;7.542;2023-07-09T13:42:42;34.60;44.10
4755;DHT22;2391;47.212;7.542;2023-07-09T13:45:23;34.70;44.90
4755;DHT22;2391;47.212;7.542;2023-07-09T13:47:50;34.70;45.60
4755;DHT22;2391;47.212;7.542;2023-07-09T13:50:18;34.80;45.20
4755;DHT22;2391;47.212;7.542;2023-07-09T13:52:45;34.90;45.10
4755;DHT22;2391;47.212;7.542;2023-07-09T13:55:20;34.90;45.10
4755;DHT22;2391;47.212;7.542;2023-07-09T13:57:50;34.80;46.70
4755;DHT22;2391;47.212;7.542;2023-07-09T14:00:16;34.80;45.00
4755;DHT22;2391;47.212;7.542;2023-07-09T14:03:02;34.80;46.70
4755;DHT22;2391;47.212;7.542;2023-07-09T14:05:28;34.80;46.70
4755;DHT22;2391;47.212;7.542;2023-07-09T14:07:54;34.80;46.90
4755;DHT22;2391;47.212;7.542;2023-07-09T14:10:19;34.80;45.80
4755;DHT22;2391;47.212;7.542;2023-07-09T14:12:47;34.90;45.60
4755;DHT22;2391;47.212;7.542;2023-07-09T14:15:16;34.90;44.90
4755;DHT22;2391;47.212;7.542;2023-07-09T14:17:43;34.90;45.90
4755;DHT22;2391;47.212;7.542;2023-07-09T14:20:18;34.90;46.70
4755;DHT22;2391;47.212;7.542;2023-07-09T14:22:45;35.00;45.40
4755;DHT22;2391;47.212;7.542;2023-07-09T14:25:23;35.00;46.30
4755;DHT22;2391;47.212;7.542;2023-07-09T14:27:51;35.00;45.50
4755;DHT22;2391;47.212;7.542;2023-07-09T14:30:19;35.10;44.00
4755;DHT22;2391;47.212;7.542;2023-07-09T14:32:47;35.00;41.30
4755;DHT22;2391;47.212;7.542;2023-07-09T14:35:19;35.10;42.40
4755;DHT22;2391;47.212;7.542;2023-07-09T14:37:48;35.10;42.30
4755;DHT22;2391;47.212;7.542;2023-07-09T14:40:15;35.10;42.80
4755;DHT22;2391;47.212;7.542;2023-07-09T14:42:42;35.10;44.00
4755;DHT22;2391;47.212;7.542;2023-07-09T14:45:25;35.10;44.40
4755;DHT22;2391;47.212;7.542;2023-07-09T14:47:52;35.10;44.90
4755;DHT22;2391;47.212;7.542;2023-07-09T14:50:19;35.20;45.20
4755;DHT22;2391;47.212;7.542;2023-07-09T14:52:47;35.30;44.50
4755;DHT22;2391;47.212;7.542;2023-07-09T14:55:16;35.30;44.30
4755;DHT22;2391;47.212;7.542;2023-07-09T14:57:44;35.30;42.90
4755;DHT22;2391;47.212;7.542;2023-07-09T15:00:16;35.30;42.90
4755;DHT22;2391;47.212;7.542;2023-07-09T15:02:43;35.20;42.50
4755;DHT22;2391;47.212;7.542;2023-07-09T15:05:24;35.20;42.80
4755;DHT22;2391;47.212;7.542;2023-07-09T15:07:51;35.20;44.20
4755;DHT22;2391;47.212;7.542;2023-07-09T15:10:25;35.30;46.10
4755;DHT22;2391;47.212;7.542;2023-07-09T15:12:55;35.30;46.60
4755;DHT22;2391;47.212;7.542;2023-07-09T15:15:29;35.30;44.80
4755;DHT22;2391;47.212;7.542;2023-07-09T15:17:57;35.30;44.20
4755;DHT22;2391;47.212;7.542;2023-07-09T15:20:26;35.20;44.90
4755;DHT22;2391;47.212;7.542;2023-07-09T15:22:55;35.20;46.20
4755;DHT22;2391;47.212;7.542;2023-07-09T15:25:24;35.10;46.20
4755;DHT22;2391;47.212;7.542;2023-07-09T15:27:51;35.20;47.80
4755;DHT22;2391;47.212;7.542;2023-07-09T15:30:29;35.20;48.70
4755;DHT22;2391;47.212;7.542;2023-07-09T15:32:55;35.20;49.30
4755;DHT22;2391;47.212;7.542;2023-07-09T15:35:22;35.30;50.20
4755;DHT22;2391;47.212;7.542;2023-07-09T15:37:48;35.30;50.50
4755;DHT22;2391;47.212;7.542;2023-07-09T15:40:27;35.30;50.40
4755;DHT22;2391;47.212;7.542;2023-07-09T15:43:04;35.30;50.30
4755;DHT22;2391;47.212;7.542;2023-07-09T15:45:30;35.30;50.30
4755;DHT22;2391;47.212;7.542;2023-07-09T15:47:55;35.30;50.70
4755;DHT22;2391;47.212;7.542;2023-07-09T15:50:26;35.20;51.60
4755;DHT22;2391;47.212;7.542;2023-07-09T15:52:51;35.30;52.30
4755;DHT22;2391;47.212;7.542;2023-07-09T15:55:20;35.20;50.80
4755;DHT22;2391;47.212;7.542;2023-07-09T15:57:47;35.10;52.00
4755;DHT22;2391;47.212;7.542;2023-07-09T16:00:30;34.80;52.70
4755;DHT22;2391;47.212;7.542;2023-07-09T16:02:57;34.60;53.50
4755;DHT22;2391;47.212;7.542;2023-07-09T16:05:26;34.40;54.10
4755;DHT22;2391;47.212;7.542;2023-07-09T16:07:53;34.20;54.30
4755;DHT22;2391;47.212;7.542;2023-07-09T16:10:21;34.10;54.60
4755;DHT22;2391;47.212;7.542;2023-07-09T16:12:48;33.90;55.10
4755;DHT22;2391;47.212;7.542;2023-07-09T16:15:18;33.90;54.90
4755;DHT22;2391;47.212;7.542;2023-07-09T16:17:46;33.80;55.60
4755;DHT22;2391;47.212;7.542;2023-07-09T16:20:15;33.70;55.00
4755;DHT22;2391;47.212;7.542;2023-07-09T16:22:43;33.60;55.00
4755;DHT22;2391;47.212;7.542;2023-07-09T16:25:23;33.50;55.00
4755;DHT22;2391;47.212;7.542;2023-07-09T16:27:45;33.40;55.60
4755;DHT22;2391;47.212;7.542;2023-07-09T16:30:17;33.40;55.90
4755;DHT22;2391;47.212;7.542;2023-07-09T16:32:44;33.50;55.90
4755;DHT22;2391;47.212;7.542;2023-07-09T16:35:15;33.60;56.20
4755;DHT22;2391;47.212;7.542;2023-07-09T16:37:42;33.60;56.20
4755;DHT22;2391;47.212;7.542;2023-07-09T16:40:27;33.70;56.70
4755;DHT22;2391;47.212;7.542;2023-07-09T16:42:51;33.80;57.20
4755;DHT22;2391;47.212;7.542;2023-07-09T16:45:20;33.90;57.70
4755;DHT22;2391;47.212;7.542;2023-07-09T16:47:46;34.00;58.00
4755;DHT22;2391;47.212;7.542;2023-07-09T16:50:14;34.10;58.30